This is the latest recevied weather packets stored in our database for station/object F8KHU-13. If no packets are shown the sender has not sent any weather packets the latest 10 day(s).
| Time | Temp. | Humidity | Pressure | Rain* | Wind** | Luminosity | Snow |
|---|---|---|---|---|---|---|---|
| 1777952434 | 13.33° C | 44% | 1012.5 hPa | 0 mm | - | 0 W/m² | - |
| 1777952414 | 13.33° C | 44% | 1012.5 hPa | 0 mm | - | 0 W/m² | - |
| 1777952394 | 13.33° C | 40% | 1012.5 hPa | 0 mm | - | 0 W/m² | - |
| 1777951534 | 13.33° C | 43% | 1012.6 hPa | 0 mm | - | 0 W/m² | - |
| 1777951514 | 13.33° C | 39% | 1012.6 hPa | 0 mm | - | 0 W/m² | - |
| 1777951494 | 13.33° C | 39% | 1012.7 hPa | 0 mm | - | 0 W/m² | - |
| 1777950634 | 13.33° C | 36% | 1012.6 hPa | 0 mm | - | 0 W/m² | - |
| 1777950614 | 13.33° C | 36% | 1012.6 hPa | 0 mm | - | 0 W/m² | - |
| 1777950594 | 13.33° C | 35% | 1012.6 hPa | 0 mm | - | 0 W/m² | - |
| 1777949734 | 13.33° C | 36% | 1012.7 hPa | 0 mm | - | 0 W/m² | - |
| 1777949714 | 13.33° C | 36% | 1012.8 hPa | 0 mm | - | 0 W/m² | - |
| 1777949694 | 13.33° C | 36% | 1012.8 hPa | 0 mm | - | 0 W/m² | - |
| 1777948834 | 13.33° C | 37% | 1012.9 hPa | 0 mm | - | 0 W/m² | - |
| 1777948814 | 13.33° C | 38% | 1013 hPa | 0 mm | - | 0 W/m² | - |
| 1777948794 | 13.33° C | 36% | 1013 hPa | 0 mm | - | 0 W/m² | - |
| 1777947935 | 13.33° C | 33% | 1012.8 hPa | 0 mm | - | 0 W/m² | - |
| 1777947914 | 13.33° C | 33% | 1012.8 hPa | 0 mm | - | 0 W/m² | - |
| 1777947895 | 13.33° C | 33% | 1012.8 hPa | 0 mm | - | 0 W/m² | - |
| 1777947035 | 13.33° C | 33% | 1012.7 hPa | 0 mm | - | 0 W/m² | - |
| 1777947014 | 13.33° C | 33% | 1012.6 hPa | 0 mm | - | 0 W/m² | - |
| 1777946995 | 13.33° C | 33% | 1012.7 hPa | 0 mm | - | 0 W/m² | - |
| 1777946135 | 13.89° C | 33% | 1012.8 hPa | 0 mm | - | 0 W/m² | - |
| 1777946115 | 13.89° C | 33% | 1012.8 hPa | 0 mm | - | 0 W/m² | - |
| 1777946095 | 13.89° C | 33% | 1012.8 hPa | 0 mm | - | 0 W/m² | - |
| 1777945235 | 13.89° C | 33% | 1012.7 hPa | 0 mm | - | 0 W/m² | - |
* Rain latest hour (hover to see other rain measurements)
** Current wind speed in m/s (hover to see current wind gust speed)